sensor_id;sensor_type;location;lat;lon;timestamp;temperature;humidity
23540;DHT22;11947;50.810;4.394;2023-05-01T00:01:13;14.60;99.90
23540;DHT22;11947;50.810;4.394;2023-05-01T00:03:39;14.60;99.90
23540;DHT22;11947;50.810;4.394;2023-05-01T00:06:05;14.50;99.90
23540;DHT22;11947;50.810;4.394;2023-05-01T00:08:32;14.40;99.90
23540;DHT22;11947;50.810;4.394;2023-05-01T00:11:02;14.30;99.90
23540;DHT22;11947;50.810;4.394;2023-05-01T00:13:28;14.30;99.90
23540;DHT22;11947;50.810;4.394;2023-05-01T00:15:53;14.20;99.90
23540;DHT22;11947;50.810;4.394;2023-05-01T00:18:20;14.20;99.90
23540;DHT22;11947;50.810;4.394;2023-05-01T00:20:46;14.10;99.90
23540;DHT22;11947;50.810;4.394;2023-05-01T00:23:11;14.10;99.90
23540;DHT22;11947;50.810;4.394;2023-05-01T00:25:38;14.20;99.90
23540;DHT22;11947;50.810;4.394;2023-05-01T00:28:04;14.20;99.90
23540;DHT22;11947;50.810;4.394;2023-05-01T00:30:32;14.20;99.90
23540;DHT22;11947;50.810;4.394;2023-05-01T00:32:58;14.20;99.90
23540;DHT22;11947;50.810;4.394;2023-05-01T00:35:25;14.40;99.90
23540;DHT22;11947;50.810;4.394;2023-05-01T00:37:50;14.50;99.90
23540;DHT22;11947;50.810;4.394;2023-05-01T00:40:16;14.60;99.90
23540;DHT22;11947;50.810;4.394;2023-05-01T00:42:42;14.70;99.90
23540;DHT22;11947;50.810;4.394;2023-05-01T00:45:08;14.60;99.90
23540;DHT22;11947;50.810;4.394;2023-05-01T00:47:37;14.60;99.90
23540;DHT22;11947;50.810;4.394;2023-05-01T00:50:03;14.70;99.90
23540;DHT22;11947;50.810;4.394;2023-05-01T00:52:30;14.60;99.90
23540;DHT22;11947;50.810;4.394;2023-05-01T00:54:56;14.70;99.90
23540;DHT22;11947;50.810;4.394;2023-05-01T00:57:22;14.90;99.90
23540;DHT22;11947;50.810;4.394;2023-05-01T00:59:48;14.80;99.90
23540;DHT22;11947;50.810;4.394;2023-05-01T01:02:14;14.80;99.90
23540;DHT22;11947;50.810;4.394;2023-05-01T01:04:41;14.70;99.90
23540;DHT22;11947;50.810;4.394;2023-05-01T01:07:39;14.80;99.90
23540;DHT22;11947;50.810;4.394;2023-05-01T01:10:22;14.80;99.90
23540;DHT22;11947;50.810;4.394;2023-05-01T01:13:11;14.80;99.90
23540;DHT22;11947;50.810;4.394;2023-05-01T01:15:47;14.70;99.90
23540;DHT22;11947;50.810;4.394;2023-05-01T01:18:21;14.70;99.90
23540;DHT22;11947;50.810;4.394;2023-05-01T01:20:51;14.70;99.90
23540;DHT22;11947;50.810;4.394;2023-05-01T01:34:31;14.50;99.90
23540;DHT22;11947;50.810;4.394;2023-05-01T01:40:06;14.40;99.90
23540;DHT22;11947;50.810;4.394;2023-05-01T01:42:46;14.60;99.90
23540;DHT22;11947;50.810;4.394;2023-05-01T01:45:24;14.60;99.90
23540;DHT22;11947;50.810;4.394;2023-05-01T01:47:51;14.60;99.90
23540;DHT22;11947;50.810;4.394;2023-05-01T01:50:19;14.50;99.90
23540;DHT22;11947;50.810;4.394;2023-05-01T01:52:49;14.50;99.90
23540;DHT22;11947;50.810;4.394;2023-05-01T01:55:17;14.50;99.90
23540;DHT22;11947;50.810;4.394;2023-05-01T01:57:45;14.50;99.90
23540;DHT22;11947;50.810;4.394;2023-05-01T02:00:13;14.50;99.90
23540;DHT22;11947;50.810;4.394;2023-05-01T02:02:41;14.50;99.90
23540;DHT22;11947;50.810;4.394;2023-05-01T02:05:12;14.50;99.90
23540;DHT22;11947;50.810;4.394;2023-05-01T02:07:39;14.30;99.90
23540;DHT22;11947;50.810;4.394;2023-05-01T02:10:08;14.40;99.90
23540;DHT22;11947;50.810;4.394;2023-05-01T02:12:35;14.40;99.90
23540;DHT22;11947;50.810;4.394;2023-05-01T02:15:02;14.40;99.90
23540;DHT22;11947;50.810;4.394;2023-05-01T02:17:28;14.40;99.90
23540;DHT22;11947;50.810;4.394;2023-05-01T02:19:56;14.40;99.90
23540;DHT22;11947;50.810;4.394;2023-05-01T02:22:22;14.40;99.90
23540;DHT22;11947;50.810;4.394;2023-05-01T02:24:52;14.30;99.90
23540;DHT22;11947;50.810;4.394;2023-05-01T02:27:59;14.30;99.90
23540;DHT22;11947;50.810;4.394;2023-05-01T02:30:25;14.20;99.90
23540;DHT22;11947;50.810;4.394;2023-05-01T02:32:50;14.20;99.90
23540;DHT22;11947;50.810;4.394;2023-05-01T02:35:16;14.20;99.90
23540;DHT22;11947;50.810;4.394;2023-05-01T02:37:43;14.20;99.90
23540;DHT22;11947;50.810;4.394;2023-05-01T02:40:12;14.20;99.90
23540;DHT22;11947;50.810;4.394;2023-05-01T02:42:41;14.20;99.90
23540;DHT22;11947;50.810;4.394;2023-05-01T02:45:10;14.20;99.90
23540;DHT22;11947;50.810;4.394;2023-05-01T02:47:43;14.20;99.90
23540;DHT22;11947;50.810;4.394;2023-05-01T02:50:10;14.10;99.90
23540;DHT22;11947;50.810;4.394;2023-05-01T02:52:37;14.00;99.90
23540;DHT22;11947;50.810;4.394;2023-05-01T02:55:04;14.10;99.90
23540;DHT22;11947;50.810;4.394;2023-05-01T02:57:31;14.00;99.90
23540;DHT22;11947;50.810;4.394;2023-05-01T02:59:57;14.10;99.90
23540;DHT22;11947;50.810;4.394;2023-05-01T03:02:23;14.20;99.90
23540;DHT22;11947;50.810;4.394;2023-05-01T03:04:48;14.20;99.90
23540;DHT22;11947;50.810;4.394;2023-05-01T03:07:14;14.10;99.90
23540;DHT22;11947;50.810;4.394;2023-05-01T03:09:40;14.10;99.90
23540;DHT22;11947;50.810;4.394;2023-05-01T03:12:05;14.00;99.90
23540;DHT22;11947;50.810;4.394;2023-05-01T03:14:31;14.00;99.90
23540;DHT22;11947;50.810;4.394;2023-05-01T03:16:57;14.00;99.90
23540;DHT22;11947;50.810;4.394;2023-05-01T03:19:22;13.90;99.90
23540;DHT22;11947;50.810;4.394;2023-05-01T03:21:48;14.00;99.90
23540;DHT22;11947;50.810;4.394;2023-05-01T03:24:14;14.10;99.90
23540;DHT22;11947;50.810;4.394;2023-05-01T03:26:39;14.00;99.90
23540;DHT22;11947;50.810;4.394;2023-05-01T03:29:05;14.10;99.90
23540;DHT22;11947;50.810;4.394;2023-05-01T03:31:30;14.00;99.90
23540;DHT22;11947;50.810;4.394;2023-05-01T03:33:56;14.00;99.90
23540;DHT22;11947;50.810;4.394;2023-05-01T03:36:22;14.00;99.90
23540;DHT22;11947;50.810;4.394;2023-05-01T03:38:48;14.00;99.90
23540;DHT22;11947;50.810;4.394;2023-05-01T03:41:13;13.90;99.90
23540;DHT22;11947;50.810;4.394;2023-05-01T03:43:39;13.90;99.90
23540;DHT22;11947;50.810;4.394;2023-05-01T03:46:04;13.90;99.90
23540;DHT22;11947;50.810;4.394;2023-05-01T03:48:30;14.00;99.90
23540;DHT22;11947;50.810;4.394;2023-05-01T03:50:56;14.00;99.90
23540;DHT22;11947;50.810;4.394;2023-05-01T03:53:22;14.00;99.90
23540;DHT22;11947;50.810;4.394;2023-05-01T03:55:48;13.80;99.90
23540;DHT22;11947;50.810;4.394;2023-05-01T03:58:14;13.80;99.90
23540;DHT22;11947;50.810;4.394;2023-05-01T04:00:39;13.90;99.90
23540;DHT22;11947;50.810;4.394;2023-05-01T04:03:06;13.90;99.90
23540;DHT22;11947;50.810;4.394;2023-05-01T04:05:32;13.90;99.90
23540;DHT22;11947;50.810;4.394;2023-05-01T04:07:58;13.80;99.90
23540;DHT22;11947;50.810;4.394;2023-05-01T04:10:24;13.80;99.90
23540;DHT22;11947;50.810;4.394;2023-05-01T04:12:49;13.80;99.90
23540;DHT22;11947;50.810;4.394;2023-05-01T04:15:15;13.80;99.90
23540;DHT22;11947;50.810;4.394;2023-05-01T04:17:41;13.90;99.90
23540;DHT22;11947;50.810;4.394;2023-05-01T04:20:08;13.80;99.90
23540;DHT22;11947;50.810;4.394;2023-05-01T04:22:35;13.90;99.90
23540;DHT22;11947;50.810;4.394;2023-05-01T04:25:01;13.90;99.90
23540;DHT22;11947;50.810;4.394;2023-05-01T04:27:26;13.90;99.90
23540;DHT22;11947;50.810;4.394;2023-05-01T04:29:52;13.90;99.90
23540;DHT22;11947;50.810;4.394;2023-05-01T04:32:18;13.90;99.90
23540;DHT22;11947;50.810;4.394;2023-05-01T04:34:43;13.80;99.90
23540;DHT22;11947;50.810;4.394;2023-05-01T04:37:09;13.90;99.90
23540;DHT22;11947;50.810;4.394;2023-05-01T04:39:35;13.90;99.90
23540;DHT22;11947;50.810;4.394;2023-05-01T04:42:02;13.90;99.90
23540;DHT22;11947;50.810;4.394;2023-05-01T04:44:28;13.90;99.90
23540;DHT22;11947;50.810;4.394;2023-05-01T04:46:53;13.90;99.90
23540;DHT22;11947;50.810;4.394;2023-05-01T04:49:21;13.90;99.90
23540;DHT22;11947;50.810;4.394;2023-05-01T04:51:46;13.90;99.90
23540;DHT22;11947;50.810;4.394;2023-05-01T04:54:12;13.80;99.90
23540;DHT22;11947;50.810;4.394;2023-05-01T04:56:37;13.90;99.90
23540;DHT22;11947;50.810;4.394;2023-05-01T04:59:03;14.00;99.90
23540;DHT22;11947;50.810;4.394;2023-05-01T05:01:29;14.00;99.90
23540;DHT22;11947;50.810;4.394;2023-05-01T05:03:54;14.00;99.90
23540;DHT22;11947;50.810;4.394;2023-05-01T05:06:20;14.10;99.90
23540;DHT22;11947;50.810;4.394;2023-05-01T05:08:46;14.10;99.90
23540;DHT22;11947;50.810;4.394;2023-05-01T05:11:12;14.10;99.90
23540;DHT22;11947;50.810;4.394;2023-05-01T05:13:37;14.10;99.90
23540;DHT22;11947;50.810;4.394;2023-05-01T05:16:03;14.10;99.90
23540;DHT22;11947;50.810;4.394;2023-05-01T05:18:29;14.10;99.90
23540;DHT22;11947;50.810;4.394;2023-05-01T05:20:54;14.10;99.90
23540;DHT22;11947;50.810;4.394;2023-05-01T05:23:20;14.10;99.90
23540;DHT22;11947;50.810;4.394;2023-05-01T05:25:46;14.10;99.90
23540;DHT22;11947;50.810;4.394;2023-05-01T05:28:11;14.10;99.90
23540;DHT22;11947;50.810;4.394;2023-05-01T05:30:37;14.10;99.90
23540;DHT22;11947;50.810;4.394;2023-05-01T05:33:02;14.10;99.90
23540;DHT22;11947;50.810;4.394;2023-05-01T05:35:29;14.10;99.90
23540;DHT22;11947;50.810;4.394;2023-05-01T05:37:55;14.20;99.90
23540;DHT22;11947;50.810;4.394;2023-05-01T05:40:20;14.20;99.90
23540;DHT22;11947;50.810;4.394;2023-05-01T05:42:47;14.30;99.90
23540;DHT22;11947;50.810;4.394;2023-05-01T05:45:13;14.30;99.90
23540;DHT22;11947;50.810;4.394;2023-05-01T05:47:38;14.40;99.90
23540;DHT22;11947;50.810;4.394;2023-05-01T05:50:05;14.40;99.90
23540;DHT22;11947;50.810;4.394;2023-05-01T05:52:31;14.40;99.90
23540;DHT22;11947;50.810;4.394;2023-05-01T05:54:57;14.50;99.90
23540;DHT22;11947;50.810;4.394;2023-05-01T05:57:23;14.40;99.90
23540;DHT22;11947;50.810;4.394;2023-05-01T05:59:49;14.50;99.90
23540;DHT22;11947;50.810;4.394;2023-05-01T06:02:14;14.40;99.90
23540;DHT22;11947;50.810;4.394;2023-05-01T06:04:40;14.40;99.90
23540;DHT22;11947;50.810;4.394;2023-05-01T06:07:06;14.40;99.90
23540;DHT22;11947;50.810;4.394;2023-05-01T06:09:32;14.50;99.90
23540;DHT22;11947;50.810;4.394;2023-05-01T06:11:58;14.60;99.90
23540;DHT22;11947;50.810;4.394;2023-05-01T06:14:23;14.60;99.90
23540;DHT22;11947;50.810;4.394;2023-05-01T06:16:50;14.80;99.90
23540;DHT22;11947;50.810;4.394;2023-05-01T06:19:16;14.90;99.90
23540;DHT22;11947;50.810;4.394;2023-05-01T06:21:42;15.00;99.90
23540;DHT22;11947;50.810;4.394;2023-05-01T06:24:07;15.10;99.90
23540;DHT22;11947;50.810;4.394;2023-05-01T06:26:33;15.10;99.90
23540;DHT22;11947;50.810;4.394;2023-05-01T06:28:58;15.20;99.90
23540;DHT22;11947;50.810;4.394;2023-05-01T06:31:24;15.30;99.90
23540;DHT22;11947;50.810;4.394;2023-05-01T06:33:50;15.40;99.90
23540;DHT22;11947;50.810;4.394;2023-05-01T06:36:15;15.50;99.90
23540;DHT22;11947;50.810;4.394;2023-05-01T06:38:41;15.70;99.90
23540;DHT22;11947;50.810;4.394;2023-05-01T06:41:13;15.90;99.90
23540;DHT22;11947;50.810;4.394;2023-05-01T06:43:39;15.90;99.90
23540;DHT22;11947;50.810;4.394;2023-05-01T06:46:04;16.10;99.90
23540;DHT22;11947;50.810;4.394;2023-05-01T06:48:30;16.20;99.90
23540;DHT22;11947;50.810;4.394;2023-05-01T06:50:56;16.30;99.90
23540;DHT22;11947;50.810;4.394;2023-05-01T06:53:22;16.50;99.90
23540;DHT22;11947;50.810;4.394;2023-05-01T06:55:47;16.60;99.90
23540;DHT22;11947;50.810;4.394;2023-05-01T06:58:13;16.50;99.90
23540;DHT22;11947;50.810;4.394;2023-05-01T07:00:38;16.60;99.90
23540;DHT22;11947;50.810;4.394;2023-05-01T07:03:04;16.80;99.90
23540;DHT22;11947;50.810;4.394;2023-05-01T07:05:35;16.70;99.90
23540;DHT22;11947;50.810;4.394;2023-05-01T07:08:01;16.90;99.90
23540;DHT22;11947;50.810;4.394;2023-05-01T07:10:26;16.90;99.90
23540;DHT22;11947;50.810;4.394;2023-05-01T07:12:53;17.10;99.90
23540;DHT22;11947;50.810;4.394;2023-05-01T07:15:19;17.10;99.90
23540;DHT22;11947;50.810;4.394;2023-05-01T07:17:44;17.10;99.90
23540;DHT22;11947;50.810;4.394;2023-05-01T07:20:11;17.10;99.90
23540;DHT22;11947;50.810;4.394;2023-05-01T07:22:36;17.30;99.90
23540;DHT22;11947;50.810;4.394;2023-05-01T07:25:02;17.40;99.90
23540;DHT22;11947;50.810;4.394;2023-05-01T07:27:28;17.50;99.90
23540;DHT22;11947;50.810;4.394;2023-05-01T07:29:57;17.60;99.90
23540;DHT22;11947;50.810;4.394;2023-05-01T07:32:25;17.70;99.90
23540;DHT22;11947;50.810;4.394;2023-05-01T07:34:51;17.70;99.90
23540;DHT22;11947;50.810;4.394;2023-05-01T07:37:16;17.90;99.90
23540;DHT22;11947;50.810;4.394;2023-05-01T07:39:43;18.00;99.90
23540;DHT22;11947;50.810;4.394;2023-05-01T07:42:09;18.00;99.90
23540;DHT22;11947;50.810;4.394;2023-05-01T07:44:34;18.00;99.90
23540;DHT22;11947;50.810;4.394;2023-05-01T07:47:04;18.00;99.90
23540;DHT22;11947;50.810;4.394;2023-05-01T07:49:35;18.10;99.90
23540;DHT22;11947;50.810;4.394;2023-05-01T07:52:02;18.10;99.90
23540;DHT22;11947;50.810;4.394;2023-05-01T07:54:27;18.10;99.90
23540;DHT22;11947;50.810;4.394;2023-05-01T07:56:53;18.10;99.90
23540;DHT22;11947;50.810;4.394;2023-05-01T07:59:19;18.20;99.90
23540;DHT22;11947;50.810;4.394;2023-05-01T08:01:44;18.20;99.90
23540;DHT22;11947;50.810;4.394;2023-05-01T08:04:10;18.30;99.90
23540;DHT22;11947;50.810;4.394;2023-05-01T08:06:36;18.30;99.90
23540;DHT22;11947;50.810;4.394;2023-05-01T08:09:01;18.40;99.90
23540;DHT22;11947;50.810;4.394;2023-05-01T08:11:27;18.50;99.90
23540;DHT22;11947;50.810;4.394;2023-05-01T08:13:54;18.50;99.90
23540;DHT22;11947;50.810;4.394;2023-05-01T08:16:20;18.60;99.90
23540;DHT22;11947;50.810;4.394;2023-05-01T08:18:45;18.70;99.90
23540;DHT22;11947;50.810;4.394;2023-05-01T08:21:11;18.80;99.90
23540;DHT22;11947;50.810;4.394;2023-05-01T08:23:37;18.80;99.90
23540;DHT22;11947;50.810;4.394;2023-05-01T08:26:03;19.00;99.90
23540;DHT22;11947;50.810;4.394;2023-05-01T08:28:29;19.00;99.90
23540;DHT22;11947;50.810;4.394;2023-05-01T08:30:54;19.10;99.90
23540;DHT22;11947;50.810;4.394;2023-05-01T08:33:20;19.20;99.90
23540;DHT22;11947;50.810;4.394;2023-05-01T08:35:47;19.30;99.90
23540;DHT22;11947;50.810;4.394;2023-05-01T08:38:13;19.60;99.90
23540;DHT22;11947;50.810;4.394;2023-05-01T08:40:40;19.70;99.90
23540;DHT22;11947;50.810;4.394;2023-05-01T08:43:07;20.00;99.90
23540;DHT22;11947;50.810;4.394;2023-05-01T08:45:35;20.10;99.90
23540;DHT22;11947;50.810;4.394;2023-05-01T08:48:05;20.40;99.90
23540;DHT22;11947;50.810;4.394;2023-05-01T08:50:33;20.50;99.90
23540;DHT22;11947;50.810;4.394;2023-05-01T08:53:02;20.80;99.90
23540;DHT22;11947;50.810;4.394;2023-05-01T08:55:30;21.10;99.90
23540;DHT22;11947;50.810;4.394;2023-05-01T08:57:57;21.40;99.90
23540;DHT22;11947;50.810;4.394;2023-05-01T09:00:24;21.60;99.90
23540;DHT22;11947;50.810;4.394;2023-05-01T09:02:50;21.50;99.90
23540;DHT22;11947;50.810;4.394;2023-05-01T09:05:20;21.70;99.90
23540;DHT22;11947;50.810;4.394;2023-05-01T09:07:46;21.80;99.90
23540;DHT22;11947;50.810;4.394;2023-05-01T09:10:15;21.90;99.90
23540;DHT22;11947;50.810;4.394;2023-05-01T09:12:44;21.80;99.90
23540;DHT22;11947;50.810;4.394;2023-05-01T09:15:12;21.60;99.90
23540;DHT22;11947;50.810;4.394;2023-05-01T09:17:39;21.30;99.90
23540;DHT22;11947;50.810;4.394;2023-05-01T09:20:05;21.10;99.90
23540;DHT22;11947;50.810;4.394;2023-05-01T09:22:32;21.00;99.90
23540;DHT22;11947;50.810;4.394;2023-05-01T09:24:59;20.90;99.90
23540;DHT22;11947;50.810;4.394;2023-05-01T09:27:26;20.50;99.90
23540;DHT22;11947;50.810;4.394;2023-05-01T09:29:52;20.30;99.90
23540;DHT22;11947;50.810;4.394;2023-05-01T09:32:23;20.10;99.90
23540;DHT22;11947;50.810;4.394;2023-05-01T09:34:53;20.00;99.90
23540;DHT22;11947;50.810;4.394;2023-05-01T09:37:32;19.90;99.90
23540;DHT22;11947;50.810;4.394;2023-05-01T09:40:05;19.90;99.90
23540;DHT22;11947;50.810;4.394;2023-05-01T09:42:33;19.90;99.90
23540;DHT22;11947;50.810;4.394;2023-05-01T09:44:59;19.90;99.90
23540;DHT22;11947;50.810;4.394;2023-05-01T09:47:29;19.90;99.90
23540;DHT22;11947;50.810;4.394;2023-05-01T09:49:58;20.00;99.90
23540;DHT22;11947;50.810;4.394;2023-05-01T09:52:28;20.00;99.90
23540;DHT22;11947;50.810;4.394;2023-05-01T09:55:14;20.20;99.90
23540;DHT22;11947;50.810;4.394;2023-05-01T09:57:40;20.50;99.90
23540;DHT22;11947;50.810;4.394;2023-05-01T10:00:08;20.70;99.90
23540;DHT22;11947;50.810;4.394;2023-05-01T10:02:34;20.80;99.90
23540;DHT22;11947;50.810;4.394;2023-05-01T10:05:01;21.00;99.90
23540;DHT22;11947;50.810;4.394;2023-05-01T10:07:27;21.40;99.90
23540;DHT22;11947;50.810;4.394;2023-05-01T10:09:53;21.80;99.90
23540;DHT22;11947;50.810;4.394;2023-05-01T10:12:28;22.20;99.90
23540;DHT22;11947;50.810;4.394;2023-05-01T10:14:55;22.50;99.90
23540;DHT22;11947;50.810;4.394;2023-05-01T10:17:22;22.80;99.90
23540;DHT22;11947;50.810;4.394;2023-05-01T10:19:48;23.20;99.90
23540;DHT22;11947;50.810;4.394;2023-05-01T10:22:14;23.60;99.90
23540;DHT22;11947;50.810;4.394;2023-05-01T10:24:42;24.20;99.90
23540;DHT22;11947;50.810;4.394;2023-05-01T10:27:08;24.30;99.90
23540;DHT22;11947;50.810;4.394;2023-05-01T10:29:37;24.10;99.90
23540;DHT22;11947;50.810;4.394;2023-05-01T10:32:05;24.10;99.90
23540;DHT22;11947;50.810;4.394;2023-05-01T10:34:40;24.10;99.90
23540;DHT22;11947;50.810;4.394;2023-05-01T10:37:12;24.20;99.90
23540;DHT22;11947;50.810;4.394;2023-05-01T10:39:39;24.20;99.90
23540;DHT22;11947;50.810;4.394;2023-05-01T10:42:07;24.20;99.90
23540;DHT22;11947;50.810;4.394;2023-05-01T10:44:36;24.10;99.90
23540;DHT22;11947;50.810;4.394;2023-05-01T10:50:09;24.10;99.90
23540;DHT22;11947;50.810;4.394;2023-05-01T10:55:36;24.00;99.90
23540;DHT22;11947;50.810;4.394;2023-05-01T10:58:02;23.70;99.90
23540;DHT22;11947;50.810;4.394;2023-05-01T11:00:29;23.60;99.90
23540;DHT22;11947;50.810;4.394;2023-05-01T11:08:29;26.10;99.90
23540;DHT22;11947;50.810;4.394;2023-05-01T11:14:03;26.70;99.90
23540;DHT22;11947;50.810;4.394;2023-05-01T11:19:11;26.00;99.90
23540;DHT22;11947;50.810;4.394;2023-05-01T11:21:37;25.70;99.90
23540;DHT22;11947;50.810;4.394;2023-05-01T11:24:08;25.50;99.90
23540;DHT22;11947;50.810;4.394;2023-05-01T11:26:41;25.20;99.90
23540;DHT22;11947;50.810;4.394;2023-05-01T11:29:10;25.10;99.90
23540;DHT22;11947;50.810;4.394;2023-05-01T11:31:37;25.30;99.90
23540;DHT22;11947;50.810;4.394;2023-05-01T11:34:02;25.90;99.90
23540;DHT22;11947;50.810;4.394;2023-05-01T11:36:30;27.10;99.90
23540;DHT22;11947;50.810;4.394;2023-05-01T11:39:14;27.50;98.40
23540;DHT22;11947;50.810;4.394;2023-05-01T11:41:41;27.30;97.60
23540;DHT22;11947;50.810;4.394;2023-05-01T11:44:07;26.80;98.00
23540;DHT22;11947;50.810;4.394;2023-05-01T11:46:32;25.90;98.60
23540;DHT22;11947;50.810;4.394;2023-05-01T11:49:00;25.00;99.20
23540;DHT22;11947;50.810;4.394;2023-05-01T11:51:26;24.10;99.90
23540;DHT22;11947;50.810;4.394;2023-05-01T11:54:02;23.50;99.90
23540;DHT22;11947;50.810;4.394;2023-05-01T11:56:30;23.10;99.90
23540;DHT22;11947;50.810;4.394;2023-05-01T11:58:58;22.70;99.90
23540;DHT22;11947;50.810;4.394;2023-05-01T12:04:03;22.80;99.90
23540;DHT22;11947;50.810;4.394;2023-05-01T12:06:45;23.10;99.90
23540;DHT22;11947;50.810;4.394;2023-05-01T12:09:21;23.60;99.40
23540;DHT22;11947;50.810;4.394;2023-05-01T12:11:49;24.70;99.80
23540;DHT22;11947;50.810;4.394;2023-05-01T12:14:16;27.70;96.50
23540;DHT22;11947;50.810;4.394;2023-05-01T12:16:42;29.70;92.90
23540;DHT22;11947;50.810;4.394;2023-05-01T12:19:08;30.70;91.50
23540;DHT22;11947;50.810;4.394;2023-05-01T12:21:36;31.40;92.00
23540;DHT22;11947;50.810;4.394;2023-05-01T12:24:09;32.80;82.20
23540;DHT22;11947;50.810;4.394;2023-05-01T12:26:34;33.40;80.20
23540;DHT22;11947;50.810;4.394;2023-05-01T12:29:04;32.90;78.00
23540;DHT22;11947;50.810;4.394;2023-05-01T12:31:31;31.90;79.10
23540;DHT22;11947;50.810;4.394;2023-05-01T12:34:02;31.20;80.70
23540;DHT22;11947;50.810;4.394;2023-05-01T12:36:30;30.20;79.30
23540;DHT22;11947;50.810;4.394;2023-05-01T12:39:07;29.50;82.30
23540;DHT22;11947;50.810;4.394;2023-05-01T12:41:46;29.00;84.00
23540;DHT22;11947;50.810;4.394;2023-05-01T12:44:26;29.70;83.30
23540;DHT22;11947;50.810;4.394;2023-05-01T12:49:26;31.10;79.80
23540;DHT22;11947;50.810;4.394;2023-05-01T12:51:54;31.70;82.10
23540;DHT22;11947;50.810;4.394;2023-05-01T12:54:31;32.10;77.90
23540;DHT22;11947;50.810;4.394;2023-05-01T12:57:24;31.70;74.60
23540;DHT22;11947;50.810;4.394;2023-05-01T12:59:57;31.20;76.00
23540;DHT22;11947;50.810;4.394;2023-05-01T13:02:29;29.80;79.50
23540;DHT22;11947;50.810;4.394;2023-05-01T13:05:05;28.40;79.80
23540;DHT22;11947;50.810;4.394;2023-05-01T13:07:31;27.20;84.80
23540;DHT22;11947;50.810;4.394;2023-05-01T13:09:58;26.50;87.50
23540;DHT22;11947;50.810;4.394;2023-05-01T13:12:25;26.70;88.00
23540;DHT22;11947;50.810;4.394;2023-05-01T13:14:51;26.30;88.30
23540;DHT22;11947;50.810;4.394;2023-05-01T13:17:28;25.90;88.50
23540;DHT22;11947;50.810;4.394;2023-05-01T13:20:02;25.30;88.30
23540;DHT22;11947;50.810;4.394;2023-05-01T13:22:32;24.50;90.60
23540;DHT22;11947;50.810;4.394;2023-05-01T13:24:59;23.90;91.40
23540;DHT22;11947;50.810;4.394;2023-05-01T13:27:26;23.40;91.80
23540;DHT22;11947;50.810;4.394;2023-05-01T13:29:56;23.00;93.30
23540;DHT22;11947;50.810;4.394;2023-05-01T13:32:24;23.00;93.90
23540;DHT22;11947;50.810;4.394;2023-05-01T13:34:50;23.50;92.30
23540;DHT22;11947;50.810;4.394;2023-05-01T13:37:16;24.00;92.60
23540;DHT22;11947;50.810;4.394;2023-05-01T13:39:43;25.40;92.10
23540;DHT22;11947;50.810;4.394;2023-05-01T13:42:19;26.40;90.10
23540;DHT22;11947;50.810;4.394;2023-05-01T13:44:50;26.80;88.60
23540;DHT22;11947;50.810;4.394;2023-05-01T13:47:17;26.80;87.20
23540;DHT22;11947;50.810;4.394;2023-05-01T13:49:43;26.30;89.60
23540;DHT22;11947;50.810;4.394;2023-05-01T13:52:15;26.00;89.60
23540;DHT22;11947;50.810;4.394;2023-05-01T13:54:42;25.70;90.00
23540;DHT22;11947;50.810;4.394;2023-05-01T13:57:08;25.70;90.90
23540;DHT22;11947;50.810;4.394;2023-05-01T13:59:42;26.00;90.20
23540;DHT22;11947;50.810;4.394;2023-05-01T14:02:26;26.90;90.00
23540;DHT22;11947;50.810;4.394;2023-05-01T14:04:53;28.60;88.00
23540;DHT22;11947;50.810;4.394;2023-05-01T14:07:22;29.40;83.70
23540;DHT22;11947;50.810;4.394;2023-05-01T14:09:56;28.80;82.10
23540;DHT22;11947;50.810;4.394;2023-05-01T14:12:29;27.80;84.50
23540;DHT22;11947;50.810;4.394;2023-05-01T14:14:55;27.90;85.20
23540;DHT22;11947;50.810;4.394;2023-05-01T14:17:32;28.30;85.60
23540;DHT22;11947;50.810;4.394;2023-05-01T14:19:59;29.20;84.00
23540;DHT22;11947;50.810;4.394;2023-05-01T14:22:30;30.10;78.90
23540;DHT22;11947;50.810;4.394;2023-05-01T14:24:58;30.60;80.20
23540;DHT22;11947;50.810;4.394;2023-05-01T14:27:24;31.50;77.90
23540;DHT22;11947;50.810;4.394;2023-05-01T14:29:50;31.00;76.10
23540;DHT22;11947;50.810;4.394;2023-05-01T14:32:16;29.70;76.50
23540;DHT22;11947;50.810;4.394;2023-05-01T14:34:42;28.50;80.40
23540;DHT22;11947;50.810;4.394;2023-05-01T14:37:11;27.60;83.20
23540;DHT22;11947;50.810;4.394;2023-05-01T14:39:39;26.80;84.90
23540;DHT22;11947;50.810;4.394;2023-05-01T14:42:05;26.10;84.70
23540;DHT22;11947;50.810;4.394;2023-05-01T14:44:31;25.60;86.20
23540;DHT22;11947;50.810;4.394;2023-05-01T14:46:57;25.30;87.90
23540;DHT22;11947;50.810;4.394;2023-05-01T14:49:24;24.90;88.40
23540;DHT22;11947;50.810;4.394;2023-05-01T14:51:50;24.50;90.50
23540;DHT22;11947;50.810;4.394;2023-05-01T14:54:17;24.10;90.50
23540;DHT22;11947;50.810;4.394;2023-05-01T14:56:44;23.70;92.00
23540;DHT22;11947;50.810;4.394;2023-05-01T14:59:10;23.50;91.90
23540;DHT22;11947;50.810;4.394;2023-05-01T15:01:37;23.30;92.70
23540;DHT22;11947;50.810;4.394;2023-05-01T15:04:02;23.10;92.80
23540;DHT22;11947;50.810;4.394;2023-05-01T15:06:30;22.90;92.60
23540;DHT22;11947;50.810;4.394;2023-05-01T15:08:56;22.40;93.70
23540;DHT22;11947;50.810;4.394;2023-05-01T15:11:22;22.40;94.80
23540;DHT22;11947;50.810;4.394;2023-05-01T15:13:47;22.40;93.80
23540;DHT22;11947;50.810;4.394;2023-05-01T15:16:15;22.30;93.90
23540;DHT22;11947;50.810;4.394;2023-05-01T15:18:41;22.30;94.70
23540;DHT22;11947;50.810;4.394;2023-05-01T15:21:06;22.20;94.10
23540;DHT22;11947;50.810;4.394;2023-05-01T15:23:32;22.10;94.30
23540;DHT22;11947;50.810;4.394;2023-05-01T15:25:58;22.00;94.40
23540;DHT22;11947;50.810;4.394;2023-05-01T15:28:25;21.90;94.10
23540;DHT22;11947;50.810;4.394;2023-05-01T15:30:51;21.70;93.90
23540;DHT22;11947;50.810;4.394;2023-05-01T15:33:18;21.60;94.10
23540;DHT22;11947;50.810;4.394;2023-05-01T15:35:44;21.50;93.80
23540;DHT22;11947;50.810;4.394;2023-05-01T15:38:11;21.30;94.50
23540;DHT22;11947;50.810;4.394;2023-05-01T15:40:37;21.10;95.60
23540;DHT22;11947;50.810;4.394;2023-05-01T15:43:04;21.00;95.20
23540;DHT22;11947;50.810;4.394;2023-05-01T15:45:30;21.00;95.70
23540;DHT22;11947;50.810;4.394;2023-05-01T15:47:56;21.00;95.90
23540;DHT22;11947;50.810;4.394;2023-05-01T15:50:22;20.90;97.00
23540;DHT22;11947;50.810;4.394;2023-05-01T15:52:54;21.00;96.30
23540;DHT22;11947;50.810;4.394;2023-05-01T15:55:19;20.90;97.30
23540;DHT22;11947;50.810;4.394;2023-05-01T15:57:46;20.70;97.10
23540;DHT22;11947;50.810;4.394;2023-05-01T16:00:13;20.80;96.80
23540;DHT22;11947;50.810;4.394;2023-05-01T16:02:40;20.80;96.50
23540;DHT22;11947;50.810;4.394;2023-05-01T16:05:07;20.70;97.10
23540;DHT22;11947;50.810;4.394;2023-05-01T16:07:33;20.70;97.00
23540;DHT22;11947;50.810;4.394;2023-05-01T16:09:59;20.60;97.00